sensor_id;sensor_type;location;lat;lon;timestamp;pressure;altitude;pressure_sealevel;temperature;humidity
53262;BME280;39658;51.090;-1.786;2023-03-25T00:02:18;99356.88;;;5.88;100.00
53262;BME280;39658;51.090;-1.786;2023-03-25T00:04:49;99360.97;;;5.92;100.00
53262;BME280;39658;51.090;-1.786;2023-03-25T00:07:17;99364.53;;;6.04;100.00
53262;BME280;39658;51.090;-1.786;2023-03-25T00:09:45;99367.88;;;6.06;100.00
53262;BME280;39658;51.090;-1.786;2023-03-25T00:12:13;99370.06;;;6.12;100.00
53262;BME280;39658;51.090;-1.786;2023-03-25T00:14:40;99368.09;;;6.16;100.00
53262;BME280;39658;51.090;-1.786;2023-03-25T00:17:07;99372.78;;;6.10;100.00
53262;BME280;39658;51.090;-1.786;2023-03-25T00:19:34;99373.13;;;6.06;100.00
53262;BME280;39658;51.090;-1.786;2023-03-25T00:22:01;99379.41;;;6.03;100.00
53262;BME280;39658;51.090;-1.786;2023-03-25T00:24:29;99376.28;;;5.98;100.00
53262;BME280;39658;51.090;-1.786;2023-03-25T00:26:56;99366.34;;;6.03;100.00
53262;BME280;39658;51.090;-1.786;2023-03-25T00:29:23;99387.56;;;6.11;100.00
53262;BME280;39658;51.090;-1.786;2023-03-25T00:31:50;99397.63;;;6.05;100.00
53262;BME280;39658;51.090;-1.786;2023-03-25T00:34:17;99385.06;;;6.10;100.00
53262;BME280;39658;51.090;-1.786;2023-03-25T00:36:44;99381.19;;;6.16;100.00
53262;BME280;39658;51.090;-1.786;2023-03-25T00:39:11;99384.94;;;6.24;100.00
53262;BME280;39658;51.090;-1.786;2023-03-25T00:41:39;99386.22;;;6.19;100.00
53262;BME280;39658;51.090;-1.786;2023-03-25T00:44:08;99396.78;;;6.17;100.00
53262;BME280;39658;51.090;-1.786;2023-03-25T00:46:37;99391.88;;;6.00;100.00
53262;BME280;39658;51.090;-1.786;2023-03-25T00:49:04;99395.28;;;5.87;100.00
53262;BME280;39658;51.090;-1.786;2023-03-25T00:51:30;99398.84;;;5.86;100.00
53262;BME280;39658;51.090;-1.786;2023-03-25T00:53:58;99387.25;;;5.90;100.00
53262;BME280;39658;51.090;-1.786;2023-03-25T00:56:26;99401.28;;;6.02;100.00
53262;BME280;39658;51.090;-1.786;2023-03-25T00:58:54;99401.16;;;6.04;100.00
53262;BME280;39658;51.090;-1.786;2023-03-25T01:01:23;99395.13;;;6.03;100.00
53262;BME280;39658;51.090;-1.786;2023-03-25T01:03:51;99396.75;;;6.04;100.00
53262;BME280;39658;51.090;-1.786;2023-03-25T01:06:24;99404.09;;;5.99;100.00
53262;BME280;39658;51.090;-1.786;2023-03-25T01:08:54;99401.28;;;6.02;100.00
53262;BME280;39658;51.090;-1.786;2023-03-25T01:11:24;99395.00;;;6.05;100.00
53262;BME280;39658;51.090;-1.786;2023-03-25T01:13:54;99390.06;;;5.87;100.00
53262;BME280;39658;51.090;-1.786;2023-03-25T01:16:24;99400.31;;;5.90;100.00
53262;BME280;39658;51.090;-1.786;2023-03-25T01:18:51;99401.16;;;6.04;100.00
53262;BME280;39658;51.090;-1.786;2023-03-25T01:21:17;99395.84;;;6.05;100.00
53262;BME280;39658;51.090;-1.786;2023-03-25T01:23:44;99403.69;;;6.05;100.00
53262;BME280;39658;51.090;-1.786;2023-03-25T01:26:11;99391.53;;;6.04;100.00
53262;BME280;39658;51.090;-1.786;2023-03-25T01:28:39;99403.38;;;5.97;100.00
53262;BME280;39658;51.090;-1.786;2023-03-25T01:31:09;99392.56;;;5.89;100.00
53262;BME280;39658;51.090;-1.786;2023-03-25T01:33:36;99408.28;;;5.89;100.00
53262;BME280;39658;51.090;-1.786;2023-03-25T01:36:04;99402.19;;;5.88;100.00
53262;BME280;39658;51.090;-1.786;2023-03-25T01:38:34;99401.97;;;5.91;100.00
53262;BME280;39658;51.090;-1.786;2023-03-25T01:41:01;99396.66;;;6.06;100.00
53262;BME280;39658;51.090;-1.786;2023-03-25T01:43:28;99400.75;;;6.10;100.00
53262;BME280;39658;51.090;-1.786;2023-03-25T01:45:54;99399.41;;;6.17;100.00
53262;BME280;39658;51.090;-1.786;2023-03-25T01:48:24;99405.66;;;6.27;100.00
53262;BME280;39658;51.090;-1.786;2023-03-25T01:50:57;99410.16;;;6.25;100.00
53262;BME280;39658;51.090;-1.786;2023-03-25T01:53:27;99399.66;;;6.38;100.00
53262;BME280;39658;51.090;-1.786;2023-03-25T01:55:55;99400.09;;;6.45;100.00
53262;BME280;39658;51.090;-1.786;2023-03-25T01:58:23;99407.63;;;6.50;100.00
53262;BME280;39658;51.090;-1.786;2023-03-25T02:00:52;99401.53;;;6.49;100.00
53262;BME280;39658;51.090;-1.786;2023-03-25T02:03:22;99407.44;;;6.27;100.00
53262;BME280;39658;51.090;-1.786;2023-03-25T02:05:54;99413.53;;;6.15;100.00
53262;BME280;39658;51.090;-1.786;2023-03-25T02:08:22;99408.06;;;6.18;100.00
53262;BME280;39658;51.090;-1.786;2023-03-25T02:10:51;99394.59;;;6.11;100.00
53262;BME280;39658;51.090;-1.786;2023-03-25T02:13:19;99411.13;;;6.11;100.00
53262;BME280;39658;51.090;-1.786;2023-03-25T02:18:39;99405.25;;;6.08;100.00
53262;BME280;39658;51.090;-1.786;2023-03-25T02:21:41;99415.09;;;6.04;100.00
53262;BME280;39658;51.090;-1.786;2023-03-25T02:24:48;99413.13;;;6.08;100.00
53262;BME280;39658;51.090;-1.786;2023-03-25T02:27:38;99419.25;;;6.20;100.00
53262;BME280;39658;51.090;-1.786;2023-03-25T02:30:33;99416.84;;;6.17;100.00
53262;BME280;39658;51.090;-1.786;2023-03-25T02:33:42;99435.94;;;6.19;100.00
53262;BME280;39658;51.090;-1.786;2023-03-25T02:36:46;99436.25;;;6.14;100.00
53262;BME280;39658;51.090;-1.786;2023-03-25T02:39:22;99427.97;;;6.20;100.00
53262;BME280;39658;51.090;-1.786;2023-03-25T02:41:58;99429.53;;;6.23;100.00
53262;BME280;39658;51.090;-1.786;2023-03-25T02:44:31;99422.09;;;6.29;100.00
53262;BME280;39658;51.090;-1.786;2023-03-25T02:47:04;99423.66;;;6.32;100.00
53262;BME280;39658;51.090;-1.786;2023-03-25T02:49:34;99437.19;;;6.39;100.00
53262;BME280;39658;51.090;-1.786;2023-03-25T02:52:06;99436.75;;;6.45;100.00
53262;BME280;39658;51.090;-1.786;2023-03-25T02:54:38;99441.16;;;6.32;100.00
53262;BME280;39658;51.090;-1.786;2023-03-25T02:57:07;99446.72;;;6.14;100.00
53262;BME280;39658;51.090;-1.786;2023-03-25T02:59:35;99448.88;;;6.07;100.00
53262;BME280;39658;51.090;-1.786;2023-03-25T03:02:06;99449.19;;;6.03;100.00
53262;BME280;39658;51.090;-1.786;2023-03-25T03:04:45;99445.75;;;6.02;100.00
53262;BME280;39658;51.090;-1.786;2023-03-25T03:07:20;99450.78;;;6.18;100.00
53262;BME280;39658;51.090;-1.786;2023-03-25T03:09:53;99445.34;;;6.21;100.00
53262;BME280;39658;51.090;-1.786;2023-03-25T03:12:35;99449.75;;;6.21;100.00
53262;BME280;39658;51.090;-1.786;2023-03-25T03:15:17;99444.09;;;6.27;100.00
53262;BME280;39658;51.090;-1.786;2023-03-25T03:17:50;99446.69;;;6.27;100.00
53262;BME280;39658;51.090;-1.786;2023-03-25T03:20:30;99444.09;;;6.27;100.00
53262;BME280;39658;51.090;-1.786;2023-03-25T03:23:04;99444.50;;;6.34;100.00
53262;BME280;39658;51.090;-1.786;2023-03-25T03:25:44;99442.53;;;6.37;100.00
53262;BME280;39658;51.090;-1.786;2023-03-25T03:28:15;99451.06;;;6.52;100.00
53262;BME280;39658;51.090;-1.786;2023-03-25T03:30:49;99458.63;;;6.57;100.00
53262;BME280;39658;51.090;-1.786;2023-03-25T03:33:20;99442.25;;;6.66;100.00
53262;BME280;39658;51.090;-1.786;2023-03-25T03:35:53;99449.59;;;6.61;100.00
53262;BME280;39658;51.090;-1.786;2023-03-25T03:38:25;99455.69;;;6.61;100.00
53262;BME280;39658;51.090;-1.786;2023-03-25T03:40:57;99456.28;;;6.78;100.00
53262;BME280;39658;51.090;-1.786;2023-03-25T03:43:29;99455.00;;;6.83;100.00
53262;BME280;39658;51.090;-1.786;2023-03-25T03:45:57;99451.28;;;6.99;100.00
53262;BME280;39658;51.090;-1.786;2023-03-25T03:48:28;99454.44;;;7.04;100.00
53262;BME280;39658;51.090;-1.786;2023-03-25T03:51:01;99469.94;;;7.07;100.00
53262;BME280;39658;51.090;-1.786;2023-03-25T03:53:30;99458.50;;;7.08;100.00
53262;BME280;39658;51.090;-1.786;2023-03-25T03:56:02;99462.47;;;7.14;100.00
53262;BME280;39658;51.090;-1.786;2023-03-25T03:58:34;99447.41;;;7.05;100.00
53262;BME280;39658;51.090;-1.786;2023-03-25T04:01:05;99451.94;;;6.90;100.00
53262;BME280;39658;51.090;-1.786;2023-03-25T04:03:38;99461.72;;;6.88;100.00
53262;BME280;39658;51.090;-1.786;2023-03-25T04:06:10;99466.19;;;6.98;100.00
53262;BME280;39658;51.090;-1.786;2023-03-25T04:08:46;99455.03;;;7.08;100.00
53262;BME280;39658;51.090;-1.786;2023-03-25T04:11:20;99457.38;;;7.24;100.00
53262;BME280;39658;51.090;-1.786;2023-03-25T04:13:51;99470.38;;;7.25;100.00
53262;BME280;39658;51.090;-1.786;2023-03-25T04:16:19;99455.44;;;7.14;100.00
53262;BME280;39658;51.090;-1.786;2023-03-25T04:18:47;99460.72;;;7.01;100.00
53262;BME280;39658;51.090;-1.786;2023-03-25T04:21:18;99473.72;;;7.03;100.00
53262;BME280;39658;51.090;-1.786;2023-03-25T04:23:44;99461.78;;;6.99;100.00
53262;BME280;39658;51.090;-1.786;2023-03-25T04:26:11;99464.16;;;7.02;100.00
53262;BME280;39658;51.090;-1.786;2023-03-25T04:28:41;99475.41;;;7.04;100.00
53262;BME280;39658;51.090;-1.786;2023-03-25T04:31:12;99476.59;;;6.87;100.00
53262;BME280;39658;51.090;-1.786;2023-03-25T04:33:40;99477.25;;;6.78;100.00
53262;BME280;39658;51.090;-1.786;2023-03-25T04:36:12;99482.09;;;6.71;100.00
53262;BME280;39658;51.090;-1.786;2023-03-25T04:38:39;99483.22;;;6.80;100.00
53262;BME280;39658;51.090;-1.786;2023-03-25T04:41:10;99479.25;;;6.74;100.00
53262;BME280;39658;51.090;-1.786;2023-03-25T04:43:38;99485.59;;;6.83;100.00
53262;BME280;39658;51.090;-1.786;2023-03-25T04:46:08;99486.31;;;6.85;100.00
53262;BME280;39658;51.090;-1.786;2023-03-25T04:48:36;99483.41;;;6.77;100.00
53262;BME280;39658;51.090;-1.786;2023-03-25T04:51:06;99506.34;;;6.86;100.00
53262;BME280;39658;51.090;-1.786;2023-03-25T04:53:35;99489.09;;;6.71;100.00
53262;BME280;39658;51.090;-1.786;2023-03-25T04:56:04;99493.59;;;6.69;100.00
53262;BME280;39658;51.090;-1.786;2023-03-25T04:58:31;99492.13;;;6.64;100.00
53262;BME280;39658;51.090;-1.786;2023-03-25T05:01:01;99499.06;;;6.65;100.00
53262;BME280;39658;51.090;-1.786;2023-03-25T05:03:32;99493.72;;;6.54;100.00
53262;BME280;39658;51.090;-1.786;2023-03-25T05:05:58;99515.91;;;6.61;100.00
53262;BME280;39658;51.090;-1.786;2023-03-25T05:08:25;99505.13;;;6.66;100.00
53262;BME280;39658;51.090;-1.786;2023-03-25T05:10:53;99525.25;;;6.65;100.00
53262;BME280;39658;51.090;-1.786;2023-03-25T05:13:20;99512.56;;;6.72;100.00
53262;BME280;39658;51.090;-1.786;2023-03-25T05:15:47;99521.16;;;6.74;100.00
53262;BME280;39658;51.090;-1.786;2023-03-25T05:18:15;99523.00;;;6.85;100.00
53262;BME280;39658;51.090;-1.786;2023-03-25T05:20:45;99524.88;;;6.96;100.00
53262;BME280;39658;51.090;-1.786;2023-03-25T05:23:15;99520.94;;;6.90;100.00
53262;BME280;39658;51.090;-1.786;2023-03-25T05:25:42;99533.28;;;7.01;100.00
53262;BME280;39658;51.090;-1.786;2023-03-25T05:28:09;99527.72;;;6.93;100.00
53262;BME280;39658;51.090;-1.786;2023-03-25T05:30:38;99543.22;;;6.96;100.00
53262;BME280;39658;51.090;-1.786;2023-03-25T05:33:06;99531.63;;;6.87;100.00
53262;BME280;39658;51.090;-1.786;2023-03-25T05:35:35;99533.28;;;6.88;100.00
53262;BME280;39658;51.090;-1.786;2023-03-25T05:38:03;99543.75;;;6.88;100.00
53262;BME280;39658;51.090;-1.786;2023-03-25T05:40:30;99543.47;;;6.80;100.00
53262;BME280;39658;51.090;-1.786;2023-03-25T05:42:58;99548.81;;;6.78;100.00
53262;BME280;39658;51.090;-1.786;2023-03-25T05:45:24;99557.50;;;6.66;100.00
53262;BME280;39658;51.090;-1.786;2023-03-25T05:47:51;99548.09;;;6.63;100.00
53262;BME280;39658;51.090;-1.786;2023-03-25T05:50:18;99552.06;;;6.56;100.00
53262;BME280;39658;51.090;-1.786;2023-03-25T05:52:46;99544.63;;;6.50;100.00
53262;BME280;39658;51.090;-1.786;2023-03-25T05:55:17;99548.19;;;6.49;100.00
53262;BME280;39658;51.090;-1.786;2023-03-25T05:57:44;99551.56;;;6.51;100.00
53262;BME280;39658;51.090;-1.786;2023-03-25T06:00:12;99558.75;;;6.47;100.00
53262;BME280;39658;51.090;-1.786;2023-03-25T06:02:40;99560.03;;;6.68;100.00
53262;BME280;39658;51.090;-1.786;2023-03-25T06:05:08;99559.91;;;6.56;100.00
53262;BME280;39658;51.090;-1.786;2023-03-25T06:07:38;99564.66;;;6.51;100.00
53262;BME280;39658;51.090;-1.786;2023-03-25T06:10:08;99573.75;;;6.71;100.00
53262;BME280;39658;51.090;-1.786;2023-03-25T06:12:36;99566.41;;;6.76;100.00
53262;BME280;39658;51.090;-1.786;2023-03-25T06:15:06;99570.47;;;6.80;100.00
53262;BME280;39658;51.090;-1.786;2023-03-25T06:17:33;99582.44;;;6.85;100.00
53262;BME280;39658;51.090;-1.786;2023-03-25T06:20:03;99575.84;;;6.92;100.00
53262;BME280;39658;51.090;-1.786;2023-03-25T06:22:37;99569.84;;;6.90;100.00
53262;BME280;39658;51.090;-1.786;2023-03-25T06:25:04;99584.00;;;7.00;100.00
53262;BME280;39658;51.090;-1.786;2023-03-25T06:27:31;99591.31;;;7.21;100.00
53262;BME280;39658;51.090;-1.786;2023-03-25T06:30:01;99597.50;;;7.19;100.00
53262;BME280;39658;51.090;-1.786;2023-03-25T06:32:28;99600.13;;;7.19;100.00
53262;BME280;39658;51.090;-1.786;2023-03-25T06:34:55;99608.72;;;7.22;100.00
53262;BME280;39658;51.090;-1.786;2023-03-25T06:37:22;99601.16;;;7.30;100.00
53262;BME280;39658;51.090;-1.786;2023-03-25T06:39:50;99602.84;;;7.31;100.00
53262;BME280;39658;51.090;-1.786;2023-03-25T06:42:20;99605.97;;;7.36;100.00
53262;BME280;39658;51.090;-1.786;2023-03-25T06:44:47;99590.88;;;7.40;100.00
53262;BME280;39658;51.090;-1.786;2023-03-25T06:47:16;99600.72;;;7.49;100.00
53262;BME280;39658;51.090;-1.786;2023-03-25T06:49:43;99615.69;;;7.47;100.00
53262;BME280;39658;51.090;-1.786;2023-03-25T06:52:10;99618.25;;;7.35;100.00
53262;BME280;39658;51.090;-1.786;2023-03-25T06:54:37;99618.75;;;7.41;100.00
53262;BME280;39658;51.090;-1.786;2023-03-25T06:57:04;99631.97;;;7.52;100.00
53262;BME280;39658;51.090;-1.786;2023-03-25T06:59:31;99627.16;;;7.46;100.00
53262;BME280;39658;51.090;-1.786;2023-03-25T07:01:58;99632.06;;;7.37;100.00
53262;BME280;39658;51.090;-1.786;2023-03-25T07:04:26;99637.44;;;7.49;100.00
53262;BME280;39658;51.090;-1.786;2023-03-25T07:06:53;99633.91;;;7.61;100.00
53262;BME280;39658;51.090;-1.786;2023-03-25T07:09:20;99645.44;;;7.71;100.00
53262;BME280;39658;51.090;-1.786;2023-03-25T07:11:47;99631.16;;;7.76;100.00
53262;BME280;39658;51.090;-1.786;2023-03-25T07:14:14;99645.94;;;7.77;100.00
53262;BME280;39658;51.090;-1.786;2023-03-25T07:16:40;99650.78;;;7.70;100.00
53262;BME280;39658;51.090;-1.786;2023-03-25T07:19:07;99650.13;;;7.79;100.00
53262;BME280;39658;51.090;-1.786;2023-03-25T07:21:35;99647.78;;;7.87;100.00
53262;BME280;39658;51.090;-1.786;2023-03-25T07:24:02;99645.69;;;7.93;100.00
53262;BME280;39658;51.090;-1.786;2023-03-25T07:26:29;99662.44;;;8.03;100.00
53262;BME280;39658;51.090;-1.786;2023-03-25T07:28:56;99668.88;;;7.99;100.00
53262;BME280;39658;51.090;-1.786;2023-03-25T07:31:23;99673.03;;;8.01;100.00
53262;BME280;39658;51.090;-1.786;2023-03-25T07:33:49;99667.06;;;7.99;100.00
53262;BME280;39658;51.090;-1.786;2023-03-25T07:36:17;99681.78;;;7.89;100.00
53262;BME280;39658;51.090;-1.786;2023-03-25T07:38:47;99675.94;;;7.85;100.00
53262;BME280;39658;51.090;-1.786;2023-03-25T07:41:14;99671.19;;;7.90;100.00
53262;BME280;39658;51.090;-1.786;2023-03-25T07:43:41;99674.22;;;7.97;100.00
53262;BME280;39658;51.090;-1.786;2023-03-25T07:46:10;99673.41;;;8.21;100.00
53262;BME280;39658;51.090;-1.786;2023-03-25T07:48:37;99675.22;;;8.07;100.00
53262;BME280;39658;51.090;-1.786;2023-03-25T07:51:04;99701.44;;;8.20;100.00
53262;BME280;39658;51.090;-1.786;2023-03-25T07:53:31;99684.78;;;8.08;100.00
53262;BME280;39658;51.090;-1.786;2023-03-25T07:55:59;99697.19;;;8.06;100.00
53262;BME280;39658;51.090;-1.786;2023-03-25T07:58:26;99709.59;;;8.29;100.00
53262;BME280;39658;51.090;-1.786;2023-03-25T08:00:55;99717.84;;;8.48;100.00
53262;BME280;39658;51.090;-1.786;2023-03-25T08:03:22;99713.81;;;8.55;100.00
53262;BME280;39658;51.090;-1.786;2023-03-25T08:05:49;99713.97;;;8.65;100.00
53262;BME280;39658;51.090;-1.786;2023-03-25T08:08:16;99726.19;;;8.77;100.00
53262;BME280;39658;51.090;-1.786;2023-03-25T08:10:44;99716.19;;;8.83;100.00
53262;BME280;39658;51.090;-1.786;2023-03-25T08:13:13;99721.56;;;8.81;100.00
53262;BME280;39658;51.090;-1.786;2023-03-25T08:15:40;99737.50;;;9.02;100.00
53262;BME280;39658;51.090;-1.786;2023-03-25T08:18:07;99743.16;;;9.20;100.00
53262;BME280;39658;51.090;-1.786;2023-03-25T08:20:34;99734.53;;;9.18;100.00
53262;BME280;39658;51.090;-1.786;2023-03-25T08:23:01;99747.63;;;9.31;100.00
53262;BME280;39658;51.090;-1.786;2023-03-25T08:25:28;99746.50;;;9.22;100.00
53262;BME280;39658;51.090;-1.786;2023-03-25T08:27:55;99749.44;;;9.53;100.00
53262;BME280;39658;51.090;-1.786;2023-03-25T08:30:23;99755.06;;;9.60;100.00
53262;BME280;39658;51.090;-1.786;2023-03-25T08:32:50;99750.25;;;9.53;100.00
53262;BME280;39658;51.090;-1.786;2023-03-25T08:35:19;99750.25;;;9.42;100.00
53262;BME280;39658;51.090;-1.786;2023-03-25T08:37:47;99754.34;;;9.46;100.00
53262;BME280;39658;51.090;-1.786;2023-03-25T08:40:14;99767.84;;;9.53;100.00
53262;BME280;39658;51.090;-1.786;2023-03-25T08:42:42;99763.69;;;9.62;100.00
53262;BME280;39658;51.090;-1.786;2023-03-25T08:45:11;99768.56;;;9.55;100.00
53262;BME280;39658;51.090;-1.786;2023-03-25T08:47:43;99754.94;;;9.50;100.00
53262;BME280;39658;51.090;-1.786;2023-03-25T08:50:11;99780.19;;;9.52;100.00
53262;BME280;39658;51.090;-1.786;2023-03-25T08:52:38;99787.44;;;9.49;100.00
53262;BME280;39658;51.090;-1.786;2023-03-25T08:55:06;99794.50;;;9.48;100.00
53262;BME280;39658;51.090;-1.786;2023-03-25T08:57:33;99797.25;;;9.47;100.00
53262;BME280;39658;51.090;-1.786;2023-03-25T09:00:00;99796.69;;;9.55;100.00
53262;BME280;39658;51.090;-1.786;2023-03-25T09:02:29;99789.53;;;9.68;100.00
53262;BME280;39658;51.090;-1.786;2023-03-25T09:04:57;99815.84;;;9.79;100.00
53262;BME280;39658;51.090;-1.786;2023-03-25T09:07:24;99811.28;;;9.70;100.00
53262;BME280;39658;51.090;-1.786;2023-03-25T09:09:51;99817.28;;;9.72;100.00
53262;BME280;39658;51.090;-1.786;2023-03-25T09:12:18;99815.13;;;10.00;100.00
53262;BME280;39658;51.090;-1.786;2023-03-25T09:14:45;99818.72;;;9.87;100.00
53262;BME280;39658;51.090;-1.786;2023-03-25T09:17:12;99822.81;;;9.92;100.00
53262;BME280;39658;51.090;-1.786;2023-03-25T09:19:39;99809.50;;;9.93;100.00
53262;BME280;39658;51.090;-1.786;2023-03-25T09:22:07;99826.03;;;9.95;100.00
53262;BME280;39658;51.090;-1.786;2023-03-25T09:24:34;99830.44;;;10.17;100.00
53262;BME280;39658;51.090;-1.786;2023-03-25T09:27:01;99827.00;;;10.39;100.00
53262;BME280;39658;51.090;-1.786;2023-03-25T09:29:28;99827.13;;;10.38;100.00
53262;BME280;39658;51.090;-1.786;2023-03-25T09:31:55;99837.38;;;10.64;100.00
53262;BME280;39658;51.090;-1.786;2023-03-25T09:34:24;99824.09;;;10.54;100.00
53262;BME280;39658;51.090;-1.786;2023-03-25T09:36:52;99827.31;;;10.57;100.00
53262;BME280;39658;51.090;-1.786;2023-03-25T09:39:21;99834.84;;;10.62;100.00
53262;BME280;39658;51.090;-1.786;2023-03-25T09:42:05;99815.22;;;12.74;100.00
53262;BME280;39658;51.090;-1.786;2023-03-25T09:44:38;99830.66;;;12.59;100.00
53262;BME280;39658;51.090;-1.786;2023-03-25T09:47:15;99824.50;;;11.35;100.00
53262;BME280;39658;51.090;-1.786;2023-03-25T09:49:47;99844.31;;;11.08;100.00
53262;BME280;39658;51.090;-1.786;2023-03-25T09:52:22;99849.88;;;10.83;100.00
53262;BME280;39658;51.090;-1.786;2023-03-25T09:54:55;99857.09;;;10.81;100.00
53262;BME280;39658;51.090;-1.786;2023-03-25T09:57:27;99859.63;;;11.14;100.00
53262;BME280;39658;51.090;-1.786;2023-03-25T09:59:56;99863.44;;;11.22;100.00
53262;BME280;39658;51.090;-1.786;2023-03-25T10:02:32;99875.53;;;11.24;100.00
53262;BME280;39658;51.090;-1.786;2023-03-25T10:05:13;99874.28;;;11.07;100.00
53262;BME280;39658;51.090;-1.786;2023-03-25T10:07:54;99882.56;;;11.03;100.00
53262;BME280;39658;51.090;-1.786;2023-03-25T10:10:31;99891.28;;;10.71;100.00
53262;BME280;39658;51.090;-1.786;2023-03-25T10:13:06;99897.66;;;10.57;100.00
53262;BME280;39658;51.090;-1.786;2023-03-25T10:15:43;99908.28;;;10.67;100.00
53262;BME280;39658;51.090;-1.786;2023-03-25T10:18:33;99914.81;;;10.95;100.00
53262;BME280;39658;51.090;-1.786;2023-03-25T10:21:05;99905.72;;;12.87;100.00
53262;BME280;39658;51.090;-1.786;2023-03-25T10:23:37;99909.88;;;12.09;100.00
53262;BME280;39658;51.090;-1.786;2023-03-25T10:26:12;99905.47;;;11.35;100.00
53262;BME280;39658;51.090;-1.786;2023-03-25T10:28:47;99920.00;;;11.29;100.00
53262;BME280;39658;51.090;-1.786;2023-03-25T10:31:18;99926.81;;;10.99;100.00
53262;BME280;39658;51.090;-1.786;2023-03-25T10:33:48;99930.09;;;10.80;100.00
53262;BME280;39658;51.090;-1.786;2023-03-25T10:36:17;99911.72;;;12.89;100.00
53262;BME280;39658;51.090;-1.786;2023-03-25T10:38:47;99921.69;;;12.66;100.00
53262;BME280;39658;51.090;-1.786;2023-03-25T10:41:24;99934.31;;;11.80;100.00
53262;BME280;39658;51.090;-1.786;2023-03-25T10:43:52;99932.59;;;14.19;100.00
53262;BME280;39658;51.090;-1.786;2023-03-25T10:46:25;99911.75;;;16.59;100.00
53262;BME280;39658;51.090;-1.786;2023-03-25T10:48:53;99915.66;;;16.38;100.00
53262;BME280;39658;51.090;-1.786;2023-03-25T10:51:22;99924.97;;;17.85;100.00
53262;BME280;39658;51.090;-1.786;2023-03-25T10:53:52;99928.47;;;19.29;100.00
53262;BME280;39658;51.090;-1.786;2023-03-25T10:56:22;99930.59;;;18.71;100.00
53262;BME280;39658;51.090;-1.786;2023-03-25T10:58:52;99931.38;;;17.00;100.00
53262;BME280;39658;51.090;-1.786;2023-03-25T11:01:23;99933.50;;;16.20;100.00
53262;BME280;39658;51.090;-1.786;2023-03-25T11:03:53;99932.03;;;15.37;100.00
53262;BME280;39658;51.090;-1.786;2023-03-25T11:06:23;99932.75;;;14.18;100.00
53262;BME280;39658;51.090;-1.786;2023-03-25T11:09:12;99966.22;;;13.11;100.00
53262;BME280;39658;51.090;-1.786;2023-03-25T11:11:44;99950.13;;;12.43;100.00
53262;BME280;39658;51.090;-1.786;2023-03-25T11:14:12;99964.94;;;12.03;100.00
53262;BME280;39658;51.090;-1.786;2023-03-25T11:16:44;99953.00;;;13.31;100.00
53262;BME280;39658;51.090;-1.786;2023-03-25T11:19:19;99945.44;;;14.71;100.00
53262;BME280;39658;51.090;-1.786;2023-03-25T11:21:47;99945.16;;;19.00;100.00
53262;BME280;39658;51.090;-1.786;2023-03-25T11:24:18;99942.38;;;20.24;100.00
53262;BME280;39658;51.090;-1.786;2023-03-25T11:26:48;99937.38;;;20.95;89.25
53262;BME280;39658;51.090;-1.786;2023-03-25T11:29:18;99945.25;;;21.55;83.35
53262;BME280;39658;51.090;-1.786;2023-03-25T11:31:55;99939.00;;;20.75;81.34
53262;BME280;39658;51.090;-1.786;2023-03-25T11:34:23;99952.06;;;19.49;90.96
53262;BME280;39658;51.090;-1.786;2023-03-25T11:36:52;99947.06;;;16.69;100.00
53262;BME280;39658;51.090;-1.786;2023-03-25T11:39:32;99929.19;;;18.44;100.00
53262;BME280;39658;51.090;-1.786;2023-03-25T11:42:26;99947.94;;;17.62;100.00
53262;BME280;39658;51.090;-1.786;2023-03-25T11:44:56;99937.63;;;18.08;100.00
53262;BME280;39658;51.090;-1.786;2023-03-25T11:47:26;99944.19;;;19.24;100.00
53262;BME280;39658;51.090;-1.786;2023-03-25T11:49:55;99937.34;;;19.30;100.00
53262;BME280;39658;51.090;-1.786;2023-03-25T11:52:24;99944.09;;;17.39;100.00
53262;BME280;39658;51.090;-1.786;2023-03-25T11:54:52;99953.25;;;14.63;100.00
53262;BME280;39658;51.090;-1.786;2023-03-25T11:57:25;99954.97;;;13.29;100.00
53262;BME280;39658;51.090;-1.786;2023-03-25T12:00:00;99938.00;;;12.41;100.00
53262;BME280;39658;51.090;-1.786;2023-03-25T12:02:36;99947.78;;;12.90;100.00
53262;BME280;39658;51.090;-1.786;2023-03-25T12:05:10;99952.13;;;12.91;100.00
53262;BME280;39658;51.090;-1.786;2023-03-25T12:07:40;99948.53;;;14.10;100.00
53262;BME280;39658;51.090;-1.786;2023-03-25T12:10:15;99948.56;;;17.22;100.00
53262;BME280;39658;51.090;-1.786;2023-03-25T12:12:49;99943.97;;;17.82;100.00
53262;BME280;39658;51.090;-1.786;2023-03-25T12:15:28;99947.91;;;16.78;100.00
53262;BME280;39658;51.090;-1.786;2023-03-25T12:18:09;99948.88;;;16.68;100.00
53262;BME280;39658;51.090;-1.786;2023-03-25T12:20:49;99957.16;;;16.92;100.00
53262;BME280;39658;51.090;-1.786;2023-03-25T12:23:28;99953.03;;;18.45;100.00
53262;BME280;39658;51.090;-1.786;2023-03-25T12:26:05;99958.56;;;16.78;100.00
53262;BME280;39658;51.090;-1.786;2023-03-25T12:29:05;99959.78;;;15.42;100.00
53262;BME280;39658;51.090;-1.786;2023-03-25T12:31:42;99972.00;;;13.65;100.00
53262;BME280;39658;51.090;-1.786;2023-03-25T12:34:17;99972.28;;;12.92;100.00
53262;BME280;39658;51.090;-1.786;2023-03-25T12:36:57;99973.81;;;12.85;100.00
53262;BME280;39658;51.090;-1.786;2023-03-25T12:39:41;99980.75;;;12.86;100.00
53262;BME280;39658;51.090;-1.786;2023-03-25T12:42:19;99978.38;;;16.14;100.00
53262;BME280;39658;51.090;-1.786;2023-03-25T12:45:02;99982.31;;;16.37;100.00
53262;BME280;39658;51.090;-1.786;2023-03-25T12:47:34;99976.16;;;15.20;100.00
53262;BME280;39658;51.090;-1.786;2023-03-25T12:50:18;99979.34;;;13.33;100.00
53262;BME280;39658;51.090;-1.786;2023-03-25T12:52:54;99989.19;;;13.01;100.00
53262;BME280;39658;51.090;-1.786;2023-03-25T12:55:45;99994.16;;;12.54;100.00
53262;BME280;39658;51.090;-1.786;2023-03-25T12:58:58;99995.53;;;12.27;100.00
53262;BME280;39658;51.090;-1.786;2023-03-25T13:01:41;99991.91;;;12.49;100.00
53262;BME280;39658;51.090;-1.786;2023-03-25T13:04:35;100001.03;;;12.35;100.00
53262;BME280;39658;51.090;-1.786;2023-03-25T13:07:07;100000.25;;;12.02;100.00
53262;BME280;39658;51.090;-1.786;2023-03-25T13:09:37;99999.94;;;11.84;100.00
53262;BME280;39658;51.090;-1.786;2023-03-25T13:12:11;100004.06;;;12.31;100.00